Time;durP1;ratioP1;P1;durP2;ratioP2;P2;SDS_P1;SDS_P2;PMS_P1;PMS_P2;Temp;Humidity;BMP_temperature;BMP_pressure;BME280_temperature;BME280_humidity;BME280_pressure;Samples;Min_cycle;Max_cycle;Signal;HPM_P1;HPM_P2
2024/02/23 00:00:05;;;;;;;228.00;67.75;;;;;;;;;;4992148;28;20436;-45
2024/02/23 00:02:31;;;;;;;229.05;68.82;;;;;;;;;;4993347;28;20192;-45
2024/02/23 00:04:57;;;;;;;230.10;69.55;;;;;;;;;;4994326;28;20370;-46
2024/02/23 00:07:23;;;;;;;229.25;69.20;;;;;;;;;;4992519;28;20259;-46
2024/02/23 00:09:49;;;;;;;228.87;69.47;;;;;;;;;;4991049;28;20262;-46
2024/02/23 00:12:15;;;;;;;228.18;68.95;;;;;;;;;;4989895;28;20852;-45
2024/02/23 00:14:41;;;;;;;230.27;69.97;;;;;;;;;;4990350;28;20200;-46
2024/02/23 00:17:07;;;;;;;227.43;67.35;;;;;;;;;;4992952;28;20711;-45
2024/02/23 00:19:33;;;;;;;226.07;67.77;;;;;;;;;;4993562;28;20175;-46
2024/02/23 00:21:59;;;;;;;228.23;68.93;;;;;;;;;;4996421;28;20900;-47
2024/02/23 00:24:26;;;;;;;228.10;68.47;;;;;;;;;;4997749;28;20195;-45
2024/02/23 00:26:52;;;;;;;227.32;67.93;;;;;;;;;;4992523;28;20417;-46
2024/02/23 00:29:18;;;;;;;228.50;68.38;;;;;;;;;;4993179;28;20173;-45
2024/02/23 00:31:47;;;;;;;230.18;70.10;;;;;;;;;;4992639;28;20205;-46
2024/02/23 00:34:13;;;;;;;227.00;67.38;;;;;;;;;;4991832;28;20218;-46
2024/02/23 00:36:40;;;;;;;229.10;69.95;;;;;;;;;;4991263;28;20174;-45
2024/02/23 00:39:09;;;;;;;228.10;67.20;;;;;;;;;;4991541;28;20177;-46
2024/02/23 00:41:35;;;;;;;227.20;66.10;;;;;;;;;;4991415;28;20214;-46
2024/02/23 00:44:01;;;;;;;228.35;69.75;;;;;;;;;;4991781;28;20235;-46
2024/02/23 00:46:27;;;;;;;228.85;68.65;;;;;;;;;;4991906;28;20645;-46
2024/02/23 00:48:54;;;;;;;227.65;67.25;;;;;;;;;;4990672;28;20585;-46
2024/02/23 00:51:20;;;;;;;227.55;67.97;;;;;;;;;;4992279;28;20612;-46
2024/02/23 00:53:46;;;;;;;228.27;68.00;;;;;;;;;;4992309;28;20213;-46
2024/02/23 00:56:12;;;;;;;225.87;66.70;;;;;;;;;;4992124;28;20912;-45
2024/02/23 00:58:38;;;;;;;229.30;70.25;;;;;;;;;;4991199;28;20452;-46
2024/02/23 01:01:04;;;;;;;226.27;64.93;;;;;;;;;;4991467;28;20684;-46
2024/02/23 01:03:30;;;;;;;226.48;66.15;;;;;;;;;;4991754;28;20942;-45
2024/02/23 01:05:56;;;;;;;225.17;65.47;;;;;;;;;;4991838;28;20204;-46
2024/02/23 01:08:22;;;;;;;226.13;66.03;;;;;;;;;;4992222;28;20506;-46
2024/02/23 01:10:48;;;;;;;226.63;66.87;;;;;;;;;;4992161;28;20446;-46
2024/02/23 01:13:14;;;;;;;227.27;67.07;;;;;;;;;;4991179;28;20887;-46
2024/02/23 01:15:40;;;;;;;228.20;66.57;;;;;;;;;;4991696;28;20900;-45
2024/02/23 01:18:07;;;;;;;226.15;67.15;;;;;;;;;;4992344;28;20417;-46
2024/02/23 01:20:33;;;;;;;227.73;68.65;;;;;;;;;;4993683;28;20283;-46
2024/02/23 01:22:59;;;;;;;228.53;69.20;;;;;;;;;;4995150;28;20265;-46
2024/02/23 01:25:25;;;;;;;227.27;68.50;;;;;;;;;;4995052;28;20509;-46
2024/02/23 01:27:51;;;;;;;225.40;67.47;;;;;;;;;;4995629;28;20419;-45
2024/02/23 01:30:18;;;;;;;226.97;68.60;;;;;;;;;;4995565;28;20424;-45
2024/02/23 01:32:44;;;;;;;226.63;68.13;;;;;;;;;;4995390;28;20404;-46
2024/02/23 01:35:10;;;;;;;227.87;69.13;;;;;;;;;;4995412;28;20187;-46
2024/02/23 01:37:36;;;;;;;224.25;65.55;;;;;;;;;;4995321;28;20916;-45
2024/02/23 01:40:03;;;;;;;226.48;66.93;;;;;;;;;;4995112;28;20200;-45
2024/02/23 01:42:29;;;;;;;235.82;74.97;;;;;;;;;;4988060;28;20185;-46
2024/02/23 01:44:58;;;;;;;227.80;68.30;;;;;;;;;;4995085;28;20207;-44
2024/02/23 01:47:25;;;;;;;227.95;68.75;;;;;;;;;;4995156;28;20177;-46
2024/02/23 01:49:51;;;;;;;228.90;68.30;;;;;;;;;;4994249;28;20184;-45
2024/02/23 01:52:18;;;;;;;225.35;66.28;;;;;;;;;;4994676;28;20165;-45
2024/02/23 01:54:44;;;;;;;228.05;68.43;;;;;;;;;;4994318;28;20316;-46
2024/02/23 01:57:10;;;;;;;226.18;66.68;;;;;;;;;;4994700;28;20213;-45
2024/02/23 01:59:38;;;;;;;227.80;67.45;;;;;;;;;;4994606;28;20195;-45
2024/02/23 02:02:04;;;;;;;228.15;68.55;;;;;;;;;;4987701;28;20185;-45
2024/02/23 02:04:31;;;;;;;228.52;69.28;;;;;;;;;;4994918;28;20213;-45
2024/02/23 02:06:57;;;;;;;225.85;66.45;;;;;;;;;;4994616;28;20195;-45
2024/02/23 02:09:23;;;;;;;227.60;67.40;;;;;;;;;;4995599;28;20175;-46
2024/02/23 02:11:49;;;;;;;227.27;68.20;;;;;;;;;;4994374;28;20189;-45
2024/02/23 02:14:15;;;;;;;226.07;66.47;;;;;;;;;;4994348;28;20420;-47
2024/02/23 02:16:41;;;;;;;228.25;69.25;;;;;;;;;;4997631;28;20790;-47
2024/02/23 02:19:07;;;;;;;227.93;70.40;;;;;;;;;;4993558;28;20170;-47
2024/02/23 02:21:34;;;;;;;227.73;67.40;;;;;;;;;;4994261;28;20442;-46
2024/02/23 02:24:00;;;;;;;227.38;68.80;;;;;;;;;;4993609;28;20181;-46
2024/02/23 02:26:26;;;;;;;228.05;67.75;;;;;;;;;;4993125;28;20773;-46
2024/02/23 02:28:52;;;;;;;226.90;67.63;;;;;;;;;;4993054;28;20252;-46
2024/02/23 02:31:18;;;;;;;225.40;66.60;;;;;;;;;;4993224;28;20421;-45
2024/02/23 02:33:44;;;;;;;229.27;69.53;;;;;;;;;;4992919;28;20587;-46
2024/02/23 02:36:11;;;;;;;226.48;66.93;;;;;;;;;;4994136;28;20254;-46
2024/02/23 02:38:37;;;;;;;230.82;71.10;;;;;;;;;;4993988;28;20169;-46
2024/02/23 02:41:03;;;;;;;226.65;69.13;;;;;;;;;;4990385;28;20212;-46
2024/02/23 02:43:29;;;;;;;228.60;69.75;;;;;;;;;;4990472;28;20259;-46
2024/02/23 02:45:55;;;;;;;227.60;70.50;;;;;;;;;;4993178;28;20308;-46
2024/02/23 02:48:21;;;;;;;226.98;69.00;;;;;;;;;;4993664;28;20488;-46
2024/02/23 02:50:47;;;;;;;226.40;69.23;;;;;;;;;;4994170;28;20204;-44
2024/02/23 02:53:13;;;;;;;227.27;68.30;;;;;;;;;;4993720;28;20605;-46
2024/02/23 02:55:42;;;;;;;225.77;67.97;;;;;;;;;;4993056;28;20189;-46
2024/02/23 02:58:08;;;;;;;226.07;68.30;;;;;;;;;;4993137;28;20495;-46
2024/02/23 03:00:34;;;;;;;227.47;68.97;;;;;;;;;;4992779;28;20283;-46
2024/02/23 03:03:00;;;;;;;226.67;69.20;;;;;;;;;;4993252;28;20933;-46
2024/02/23 03:05:26;;;;;;;227.10;69.67;;;;;;;;;;4992906;28;20468;-46
2024/02/23 03:07:52;;;;;;;227.03;70.00;;;;;;;;;;4993133;28;20408;-47
2024/02/23 03:10:18;;;;;;;225.87;68.47;;;;;;;;;;4993237;28;20479;-46
2024/02/23 03:12:44;;;;;;;225.53;68.40;;;;;;;;;;4994623;28;20742;-45
2024/02/23 03:15:10;;;;;;;228.73;70.32;;;;;;;;;;4992510;28;20424;-45
2024/02/23 03:17:36;;;;;;;226.20;67.47;;;;;;;;;;4992864;28;20174;-46
2024/02/23 03:20:05;;;;;;;224.73;66.78;;;;;;;;;;4992900;28;20276;-45
2024/02/23 03:22:31;;;;;;;227.25;68.53;;;;;;;;;;4992838;28;20261;-46
2024/02/23 03:24:57;;;;;;;226.60;67.80;;;;;;;;;;4993559;28;20243;-45
2024/02/23 03:27:28;;;;;;;226.27;68.77;;;;;;;;;;4993759;28;20196;-44
2024/02/23 03:29:54;;;;;;;226.85;68.20;;;;;;;;;;4991508;28;20453;-47
2024/02/23 03:32:20;;;;;;;226.48;68.68;;;;;;;;;;4993311;28;20220;-45
2024/02/23 03:34:46;;;;;;;228.43;69.60;;;;;;;;;;4992822;28;20726;-46
2024/02/23 03:37:12;;;;;;;226.00;69.20;;;;;;;;;;4992772;28;20932;-46
2024/02/23 03:39:38;;;;;;;227.40;69.55;;;;;;;;;;4992362;28;20935;-46
2024/02/23 03:42:04;;;;;;;225.32;67.97;;;;;;;;;;4993142;28;20181;-45
2024/02/23 03:44:31;;;;;;;224.30;66.38;;;;;;;;;;4987885;28;20207;-45
2024/02/23 03:46:57;;;;;;;221.73;63.30;;;;;;;;;;4991663;28;20564;-45
2024/02/23 03:49:23;;;;;;;223.07;64.90;;;;;;;;;;4992517;28;20177;-45
2024/02/23 03:51:49;;;;;;;226.17;67.67;;;;;;;;;;4992272;28;20793;-45
2024/02/23 03:54:15;;;;;;;227.30;70.53;;;;;;;;;;4992119;28;20405;-45
2024/02/23 03:56:41;;;;;;;227.75;70.63;;;;;;;;;;4992169;28;20222;-45
2024/02/23 03:59:10;;;;;;;225.73;66.68;;;;;;;;;;4992010;28;20198;-45
2024/02/23 04:01:39;;;;;;;226.00;68.53;;;;;;;;;;4992022;28;20255;-45
2024/02/23 04:04:06;;;;;;;224.23;67.35;;;;;;;;;;4992032;28;20175;-45
2024/02/23 04:06:32;;;;;;;226.10;68.80;;;;;;;;;;4991593;28;20189;-45
2024/02/23 04:08:58;;;;;;;223.85;65.72;;;;;;;;;;4991898;28;20192;-45
2024/02/23 04:11:24;;;;;;;226.47;69.60;;;;;;;;;;4991752;28;20198;-44
2024/02/23 04:13:50;;;;;;;224.05;69.13;;;;;;;;;;4992164;28;20500;-45
2024/02/23 04:16:16;;;;;;;222.52;65.68;;;;;;;;;;4991563;28;20272;-45
2024/02/23 04:18:42;;;;;;;225.27;69.90;;;;;;;;;;4991738;28;20182;-45
2024/02/23 04:21:08;;;;;;;224.43;68.07;;;;;;;;;;4991558;28;20434;-45
2024/02/23 04:23:34;;;;;;;224.23;67.45;;;;;;;;;;4991979;28;20404;-45
2024/02/23 04:26:00;;;;;;;222.30;66.47;;;;;;;;;;4991208;28;20204;-45
2024/02/23 04:28:30;;;;;;;221.23;66.47;;;;;;;;;;4991653;28;20413;-45
2024/02/23 04:30:56;;;;;;;225.52;67.40;;;;;;;;;;4991767;28;20511;-45
2024/02/23 04:33:22;;;;;;;224.67;67.60;;;;;;;;;;4991713;28;20666;-45
2024/02/23 04:35:48;;;;;;;224.65;66.32;;;;;;;;;;4991337;28;20418;-45
2024/02/23 04:38:14;;;;;;;221.87;64.37;;;;;;;;;;4991527;28;20697;-45
2024/02/23 04:40:40;;;;;;;225.17;68.13;;;;;;;;;;4990988;28;20976;-45
2024/02/23 04:43:06;;;;;;;225.47;67.90;;;;;;;;;;4991506;28;20913;-45
2024/02/23 04:45:32;;;;;;;225.10;68.60;;;;;;;;;;4991009;28;20827;-45
2024/02/23 04:47:58;;;;;;;226.25;69.00;;;;;;;;;;4991577;28;20527;-45
2024/02/23 04:50:24;;;;;;;223.93;67.90;;;;;;;;;;4991285;28;20212;-45
2024/02/23 04:52:50;;;;;;;221.27;65.33;;;;;;;;;;4991422;28;20416;-45
2024/02/23 04:55:16;;;;;;;228.33;71.77;;;;;;;;;;4992344;28;20416;-45
2024/02/23 04:57:42;;;;;;;223.95;66.82;;;;;;;;;;4995396;28;20418;-45
2024/02/23 05:00:08;;;;;;;224.60;68.77;;;;;;;;;;4995416;28;20201;-45
2024/02/23 05:02:35;;;;;;;225.25;68.10;;;;;;;;;;4995204;28;20435;-45
2024/02/23 05:05:04;;;;;;;224.02;67.50;;;;;;;;;;4995007;28;20620;-45
2024/02/23 05:07:33;;;;;;;223.48;67.32;;;;;;;;;;4994988;28;20204;-45
2024/02/23 05:09:59;;;;;;;225.50;68.03;;;;;;;;;;4995027;28;20189;-45
2024/02/23 05:12:26;;;;;;;222.95;66.55;;;;;;;;;;4995106;28;20175;-45
2024/02/23 05:14:52;;;;;;;226.13;70.82;;;;;;;;;;4995226;28;20180;-45
2024/02/23 05:17:18;;;;;;;225.23;68.50;;;;;;;;;;4994836;28;20185;-45
2024/02/23 05:19:46;;;;;;;224.88;67.97;;;;;;;;;;4995200;28;20591;-45
2024/02/23 05:22:12;;;;;;;222.68;67.60;;;;;;;;;;4995458;28;20252;-44
2024/02/23 05:24:38;;;;;;;225.77;68.80;;;;;;;;;;4994728;28;20287;-44
2024/02/23 05:27:04;;;;;;;223.47;66.50;;;;;;;;;;4994570;28;20421;-45
2024/02/23 05:29:30;;;;;;;223.15;68.05;;;;;;;;;;4994821;28;20414;-45
2024/02/23 05:31:56;;;;;;;223.23;67.83;;;;;;;;;;4994728;28;20201;-45
2024/02/23 05:34:22;;;;;;;222.82;65.72;;;;;;;;;;4994727;28;20432;-45
2024/02/23 05:36:50;;;;;;;223.15;67.18;;;;;;;;;;4994142;28;20175;-45
2024/02/23 05:39:17;;;;;;;225.07;69.10;;;;;;;;;;4994946;28;20645;-45
2024/02/23 05:41:43;;;;;;;225.57;68.78;;;;;;;;;;4994546;28;20216;-45
2024/02/23 05:44:10;;;;;;;223.57;66.57;;;;;;;;;;4994658;28;20178;-45
2024/02/23 05:46:36;;;;;;;225.27;69.95;;;;;;;;;;4994079;28;20240;-45
2024/02/23 05:49:03;;;;;;;223.52;68.10;;;;;;;;;;4994524;28;20181;-45
2024/02/23 05:51:29;;;;;;;224.52;67.72;;;;;;;;;;4994067;28;20196;-46
2024/02/23 05:53:55;;;;;;;222.40;64.80;;;;;;;;;;4994654;28;20177;-45
2024/02/23 05:56:22;;;;;;;224.02;66.70;;;;;;;;;;4994012;28;20174;-45
2024/02/23 05:58:47;;;;;;;221.55;64.80;;;;;;;;;;4994155;28;20192;-45
2024/02/23 06:01:13;;;;;;;221.57;65.57;;;;;;;;;;4994226;28;20205;-45
2024/02/23 06:03:39;;;;;;;224.03;66.20;;;;;;;;;;4994374;28;20451;-45
2024/02/23 06:06:08;;;;;;;224.73;69.00;;;;;;;;;;4993305;28;20554;-45
2024/02/23 06:08:34;;;;;;;224.95;67.90;;;;;;;;;;4993415;28;20413;-45
2024/02/23 06:11:01;;;;;;;222.20;65.07;;;;;;;;;;4994223;28;20185;-45
2024/02/23 06:13:26;;;;;;;221.90;65.40;;;;;;;;;;4994103;28;20244;-45
2024/02/23 06:15:53;;;;;;;223.63;68.20;;;;;;;;;;4994126;28;20672;-45
2024/02/23 06:18:19;;;;;;;219.82;64.90;;;;;;;;;;4993859;28;20412;-45
2024/02/23 06:20:45;;;;;;;223.93;67.87;;;;;;;;;;4993654;28;20292;-45
2024/02/23 06:23:11;;;;;;;223.80;67.00;;;;;;;;;;4993902;28;20929;-45
2024/02/23 06:25:37;;;;;;;227.32;68.95;;;;;;;;;;4993800;28;20292;-45
2024/02/23 06:28:03;;;;;;;220.00;64.20;;;;;;;;;;4993826;28;20205;-45
2024/02/23 06:30:29;;;;;;;222.45;65.85;;;;;;;;;;4993161;28;20487;-45
2024/02/23 06:32:55;;;;;;;224.93;69.97;;;;;;;;;;4992935;28;20181;-45
2024/02/23 06:35:21;;;;;;;224.27;67.87;;;;;;;;;;4992774;28;20409;-45
2024/02/23 06:37:47;;;;;;;222.48;65.88;;;;;;;;;;4992679;28;20736;-44
2024/02/23 06:40:13;;;;;;;222.43;67.77;;;;;;;;;;4991897;28;20819;-45
2024/02/23 06:42:39;;;;;;;225.30;68.93;;;;;;;;;;4992775;28;20416;-45
2024/02/23 06:45:06;;;;;;;224.93;70.50;;;;;;;;;;4992744;28;20201;-45
2024/02/23 06:47:32;;;;;;;225.40;69.95;;;;;;;;;;4992941;28;20934;-45
2024/02/23 06:49:58;;;;;;;221.40;66.80;;;;;;;;;;4992239;28;20205;-45
2024/02/23 06:52:25;;;;;;;219.98;64.35;;;;;;;;;;4993522;28;20443;-45
2024/02/23 06:54:51;;;;;;;223.18;69.63;;;;;;;;;;4993188;28;20181;-45
2024/02/23 06:57:17;;;;;;;222.73;70.70;;;;;;;;;;4992873;28;20203;-45
2024/02/23 06:59:43;;;;;;;226.17;72.90;;;;;;;;;;4993175;28;20500;-45
2024/02/23 07:02:09;;;;;;;226.32;69.95;;;;;;;;;;4993008;28;20975;-45
2024/02/23 07:04:35;;;;;;;225.07;68.47;;;;;;;;;;4992904;28;20725;-45
2024/02/23 07:07:07;;;;;;;222.57;66.10;;;;;;;;;;4993031;28;20256;-45
2024/02/23 07:09:33;;;;;;;222.48;64.72;;;;;;;;;;4993170;28;20908;-45
2024/02/23 07:11:59;;;;;;;225.32;69.38;;;;;;;;;;4992913;28;20692;-45
2024/02/23 07:14:25;;;;;;;221.48;69.00;;;;;;;;;;4990382;28;20197;-45
2024/02/23 07:16:52;;;;;;;224.82;69.65;;;;;;;;;;4992020;28;20650;-45
2024/02/23 07:19:19;;;;;;;223.57;68.57;;;;;;;;;;4992341;28;20279;-44
2024/02/23 07:21:45;;;;;;;228.57;74.28;;;;;;;;;;4992193;28;20185;-45
2024/02/23 07:24:11;;;;;;;225.05;69.10;;;;;;;;;;4995332;28;20649;-45
2024/02/23 07:26:37;;;;;;;231.15;74.20;;;;;;;;;;4993942;28;20206;-45
2024/02/23 07:29:04;;;;;;;224.07;69.13;;;;;;;;;;4992393;28;20256;-45
2024/02/23 07:31:30;;;;;;;225.13;69.55;;;;;;;;;;4992120;28;20420;-45
2024/02/23 07:33:55;;;;;;;224.68;68.95;;;;;;;;;;4992359;28;20218;-45
2024/02/23 07:36:21;;;;;;;225.07;68.10;;;;;;;;;;4992141;28;20181;-45
2024/02/23 07:38:48;;;;;;;223.57;68.50;;;;;;;;;;4992074;28;20418;-45
2024/02/23 07:41:15;;;;;;;223.50;68.20;;;;;;;;;;4992077;28;20295;-45
2024/02/23 07:43:44;;;;;;;224.15;68.30;;;;;;;;;;4991997;28;20177;-45
2024/02/23 07:46:10;;;;;;;224.43;69.18;;;;;;;;;;4991647;28;20638;-45
2024/02/23 07:48:36;;;;;;;225.23;68.93;;;;;;;;;;4991810;28;20255;-45
2024/02/23 07:51:03;;;;;;;225.18;69.55;;;;;;;;;;4985153;28;20844;-45
2024/02/23 07:53:29;;;;;;;224.27;69.20;;;;;;;;;;4991917;28;20178;-46
2024/02/23 07:55:55;;;;;;;224.93;69.80;;;;;;;;;;4992252;28;20183;-45
2024/02/23 07:58:21;;;;;;;226.95;70.18;;;;;;;;;;4989530;28;20175;-45
2024/02/23 08:00:47;;;;;;;229.13;73.05;;;;;;;;;;4990374;28;20275;-45
2024/02/23 08:03:14;;;;;;;231.55;72.90;;;;;;;;;;4991961;28;20176;-46
2024/02/23 08:05:40;;;;;;;233.23;73.18;;;;;;;;;;4991492;28;20664;-45
2024/02/23 08:08:06;;;;;;;231.30;72.43;;;;;;;;;;4991692;28;20196;-46
2024/02/23 08:10:32;;;;;;;234.98;74.88;;;;;;;;;;4988698;28;20447;-45
2024/02/23 08:12:59;;;;;;;232.17;73.17;;;;;;;;;;4991756;28;20173;-45
2024/02/23 08:15:25;;;;;;;238.55;79.05;;;;;;;;;;4991320;28;20408;-46
2024/02/23 08:17:51;;;;;;;235.23;76.27;;;;;;;;;;4992330;28;20275;-46
2024/02/23 08:20:17;;;;;;;234.75;75.13;;;;;;;;;;4994072;28;20427;-46
2024/02/23 08:22:43;;;;;;;238.35;78.07;;;;;;;;;;4987547;28;20559;-46
2024/02/23 08:25:10;;;;;;;241.27;78.67;;;;;;;;;;4991014;28;20206;-46
2024/02/23 08:27:35;;;;;;;238.00;75.57;;;;;;;;;;4995625;28;20439;-45
2024/02/23 08:30:01;;;;;;;238.60;79.20;;;;;;;;;;4989637;28;20204;-46
2024/02/23 08:32:27;;;;;;;236.13;74.73;;;;;;;;;;4991360;28;20406;-45
2024/02/23 08:34:59;;;;;;;238.03;77.33;;;;;;;;;;4971980;28;20786;-45
2024/02/23 08:37:25;;;;;;;237.05;75.47;;;;;;;;;;4971937;28;20417;-46
2024/02/23 08:39:51;;;;;;;237.13;76.77;;;;;;;;;;4978661;28;20206;-46
2024/02/23 08:42:16;;;;;;;233.40;72.93;;;;;;;;;;4991698;28;20412;-45
2024/02/23 08:44:42;;;;;;;236.07;76.23;;;;;;;;;;4991415;28;20668;-45
2024/02/23 08:47:08;;;;;;;235.43;75.37;;;;;;;;;;4991196;28;20415;-45
2024/02/23 08:49:34;;;;;;;235.10;76.10;;;;;;;;;;4991698;28;20446;-45
2024/02/23 08:52:02;;;;;;;230.67;71.40;;;;;;;;;;4991086;28;20435;-45
2024/02/23 08:54:28;;;;;;;231.23;71.47;;;;;;;;;;4991385;28;20410;-45
2024/02/23 08:56:54;;;;;;;230.20;69.33;;;;;;;;;;4991084;28;20260;-46
2024/02/23 08:59:20;;;;;;;232.73;73.27;;;;;;;;;;4991388;28;20453;-45
2024/02/23 09:01:46;;;;;;;233.47;73.10;;;;;;;;;;4991173;28;20439;-45
2024/02/23 09:04:12;;;;;;;232.30;73.95;;;;;;;;;;4991497;28;20423;-46
2024/02/23 09:06:38;;;;;;;236.85;75.60;;;;;;;;;;4990642;28;20207;-45
2024/02/23 09:09:04;;;;;;;232.37;72.60;;;;;;;;;;4991406;28;20187;-45
2024/02/23 09:11:30;;;;;;;230.70;71.30;;;;;;;;;;4990996;28;20451;-45
2024/02/23 09:13:56;;;;;;;230.80;71.80;;;;;;;;;;4991206;28;20412;-45
2024/02/23 09:16:24;;;;;;;229.07;71.67;;;;;;;;;;4990855;28;20854;-45
2024/02/23 09:18:50;;;;;;;229.98;71.80;;;;;;;;;;4991021;28;20500;-45
2024/02/23 09:21:16;;;;;;;229.83;70.43;;;;;;;;;;4990879;28;20363;-45
2024/02/23 09:23:42;;;;;;;229.55;70.47;;;;;;;;;;4991236;28;20416;-45
2024/02/23 09:26:11;;;;;;;229.80;71.37;;;;;;;;;;4990847;28;20231;-46
2024/02/23 09:28:37;;;;;;;228.85;71.18;;;;;;;;;;4990998;28;20451;-46
2024/02/23 09:31:04;;;;;;;232.18;73.75;;;;;;;;;;4990853;28;20274;-45
2024/02/23 09:33:30;;;;;;;229.07;70.85;;;;;;;;;;4990816;28;20176;-45
2024/02/23 09:35:57;;;;;;;229.10;70.57;;;;;;;;;;4991015;28;20187;-45
2024/02/23 09:38:26;;;;;;;230.65;71.85;;;;;;;;;;4991004;28;20564;-45
2024/02/23 09:40:52;;;;;;;231.20;73.10;;;;;;;;;;4991875;28;20217;-45
2024/02/23 09:43:18;;;;;;;230.15;70.93;;;;;;;;;;4994519;28;20183;-45
2024/02/23 09:45:45;;;;;;;231.63;73.10;;;;;;;;;;4994307;28;20207;-45
2024/02/23 09:48:12;;;;;;;229.88;71.10;;;;;;;;;;4994392;28;20192;-45
2024/02/23 09:50:38;;;;;;;232.43;73.00;;;;;;;;;;4994356;28;20201;-45
2024/02/23 09:53:10;;;;;;;226.60;68.23;;;;;;;;;;4994375;28;20175;-45
2024/02/23 09:55:36;;;;;;;228.95;70.20;;;;;;;;;;4991699;28;20994;-45
2024/02/23 09:58:03;;;;;;;231.87;71.90;;;;;;;;;;4994580;28;20259;-45
2024/02/23 10:00:30;;;;;;;231.30;71.57;;;;;;;;;;4994129;28;20431;-45
2024/02/23 10:02:56;;;;;;;231.27;72.50;;;;;;;;;;4993967;28;20180;-45
2024/02/23 10:05:29;;;;;;;229.68;70.82;;;;;;;;;;4993900;28;20702;-45
2024/02/23 10:07:58;;;;;;;229.00;70.63;;;;;;;;;;4994152;28;20357;-45
2024/02/23 10:10:31;;;;;;;229.75;71.35;;;;;;;;;;4994328;28;20300;-45
2024/02/23 10:12:57;;;;;;;229.63;70.07;;;;;;;;;;4994016;28;20175;-45
2024/02/23 10:15:23;;;;;;;232.18;74.05;;;;;;;;;;4994166;28;20183;-45
2024/02/23 10:17:49;;;;;;;233.33;72.90;;;;;;;;;;4993739;28;20716;-45
2024/02/23 10:20:15;;;;;;;232.55;72.70;;;;;;;;;;4993900;28;20428;-45
2024/02/23 10:22:41;;;;;;;229.33;70.20;;;;;;;;;;4993820;28;20183;-45
2024/02/23 10:25:07;;;;;;;237.37;76.63;;;;;;;;;;4993303;28;20468;-45
2024/02/23 10:27:33;;;;;;;232.43;72.72;;;;;;;;;;4989646;28;21056;-45
2024/02/23 10:29:59;;;;;;;233.77;74.97;;;;;;;;;;4993370;28;20274;-45
2024/02/23 10:32:28;;;;;;;233.77;74.10;;;;;;;;;;4992622;28;20767;-45
2024/02/23 10:34:56;;;;;;;233.35;73.00;;;;;;;;;;4992663;28;20411;-45
2024/02/23 10:37:23;;;;;;;233.55;74.88;;;;;;;;;;4993265;28;20177;-45
2024/02/23 10:39:50;;;;;;;236.25;77.15;;;;;;;;;;4992379;28;20184;-45
2024/02/23 10:42:20;;;;;;;232.00;71.68;;;;;;;;;;4992903;28;20234;-46
2024/02/23 10:44:45;;;;;;;232.60;74.75;;;;;;;;;;4993266;28;20597;-45
2024/02/23 10:47:12;;;;;;;233.97;73.40;;;;;;;;;;4993199;28;20176;-45
2024/02/23 10:49:40;;;;;;;234.00;73.03;;;;;;;;;;4993306;28;20415;-45
2024/02/23 10:52:06;;;;;;;233.93;73.72;;;;;;;;;;4993438;28;20180;-45
2024/02/23 10:54:33;;;;;;;230.75;70.72;;;;;;;;;;4992573;28;20180;-45
2024/02/23 10:56:59;;;;;;;236.07;75.05;;;;;;;;;;4992489;28;20176;-46
2024/02/23 10:59:27;;;;;;;233.07;72.40;;;;;;;;;;4993199;28;20517;-46
2024/02/23 11:01:56;;;;;;;236.55;76.07;;;;;;;;;;4993092;28;20436;-46
2024/02/23 11:04:23;;;;;;;234.25;72.72;;;;;;;;;;4993142;28;20197;-46
2024/02/23 11:06:52;;;;;;;235.82;74.13;;;;;;;;;;4992633;28;20193;-46
2024/02/23 11:09:21;;;;;;;238.70;75.97;;;;;;;;;;4991388;28;20239;-46
2024/02/23 11:11:57;;;;;;;234.48;75.00;;;;;;;;;;4991970;28;20224;-46
2024/02/23 11:14:34;;;;;;;234.35;72.75;;;;;;;;;;4992508;28;20178;-45
2024/02/23 11:17:01;;;;;;;240.75;78.95;;;;;;;;;;4992927;28;20231;-46
2024/02/23 11:19:34;;;;;;;239.73;79.07;;;;;;;;;;4992874;28;20177;-45
2024/02/23 11:22:00;;;;;;;241.95;78.20;;;;;;;;;;4992932;28;20601;-47
2024/02/23 11:24:28;;;;;;;242.77;79.50;;;;;;;;;;4992772;28;20171;-46
2024/02/23 11:27:08;;;;;;;241.93;81.05;;;;;;;;;;4992529;28;20403;-46
2024/02/23 11:29:34;;;;;;;238.60;75.97;;;;;;;;;;4992927;28;20202;-46
2024/02/23 11:32:03;;;;;;;239.07;76.78;;;;;;;;;;4991260;28;20231;-46
2024/02/23 11:34:29;;;;;;;239.30;77.47;;;;;;;;;;4992166;28;20168;-45
2024/02/23 11:36:56;;;;;;;237.43;73.87;;;;;;;;;;4992137;28;20236;-45
2024/02/23 11:39:23;;;;;;;236.18;74.80;;;;;;;;;;4992838;28;20411;-46
2024/02/23 11:41:49;;;;;;;239.48;77.30;;;;;;;;;;4991234;28;20590;-45
2024/02/23 11:44:17;;;;;;;234.73;74.53;;;;;;;;;;4991735;28;20308;-45
2024/02/23 11:46:43;;;;;;;236.27;75.25;;;;;;;;;;4991406;28;20208;-46
2024/02/23 11:49:09;;;;;;;235.32;73.63;;;;;;;;;;4987519;28;20249;-45
2024/02/23 11:51:36;;;;;;;236.95;76.97;;;;;;;;;;4991667;28;20290;-46
2024/02/23 11:54:02;;;;;;;234.07;73.22;;;;;;;;;;4992279;28;20173;-45
2024/02/23 11:56:29;;;;;;;236.23;74.47;;;;;;;;;;4991030;28;20169;-46
2024/02/23 11:58:55;;;;;;;237.18;74.78;;;;;;;;;;4989657;28;20200;-45
2024/02/23 12:01:21;;;;;;;239.10;77.55;;;;;;;;;;4990619;28;20765;-45
2024/02/23 12:03:47;;;;;;;235.03;74.37;;;;;;;;;;4990286;28;20211;-45
2024/02/23 12:06:15;;;;;;;231.77;71.30;;;;;;;;;;4990600;28;20462;-45
2024/02/23 12:08:41;;;;;;;235.82;74.60;;;;;;;;;;4989838;28;20855;-45
2024/02/23 12:11:08;;;;;;;233.93;74.07;;;;;;;;;;4990166;28;20201;-45
2024/02/23 12:13:34;;;;;;;233.82;73.32;;;;;;;;;;4991011;28;20173;-45
2024/02/23 12:16:01;;;;;;;234.55;73.10;;;;;;;;;;4990670;28;20255;-45
2024/02/23 12:18:29;;;;;;;232.73;72.53;;;;;;;;;;4991443;28;20220;-45
2024/02/23 12:20:59;;;;;;;236.23;75.60;;;;;;;;;;4983293;28;20215;-45
2024/02/23 12:23:25;;;;;;;235.98;77.60;;;;;;;;;;4990718;28;20287;-45
2024/02/23 12:25:55;;;;;;;232.27;72.67;;;;;;;;;;4990845;28;20283;-46
2024/02/23 12:28:20;;;;;;;233.50;74.50;;;;;;;;;;4991258;28;20466;-45
2024/02/23 12:30:46;;;;;;;230.87;70.20;;;;;;;;;;4991436;28;20204;-45
2024/02/23 12:33:15;;;;;;;233.50;73.63;;;;;;;;;;4991448;28;20412;-45
2024/02/23 12:35:41;;;;;;;234.07;74.13;;;;;;;;;;4990757;28;20264;-45
2024/02/23 12:38:08;;;;;;;232.05;72.35;;;;;;;;;;4991365;28;20211;-46
2024/02/23 12:40:34;;;;;;;233.77;75.13;;;;;;;;;;4990002;28;20314;-45
2024/02/23 12:43:00;;;;;;;229.57;72.17;;;;;;;;;;4987479;28;20727;-45
2024/02/23 12:45:25;;;;;;;231.13;69.37;;;;;;;;;;4990296;28;20811;-45
2024/02/23 12:47:51;;;;;;;230.67;69.97;;;;;;;;;;4991394;28;20811;-46
2024/02/23 12:50:17;;;;;;;231.07;70.37;;;;;;;;;;4991443;28;20467;-45
2024/02/23 12:52:44;;;;;;;229.02;67.63;;;;;;;;;;4991577;28;20408;-45
2024/02/23 12:55:10;;;;;;;235.10;73.93;;;;;;;;;;4991051;28;20657;-45
2024/02/23 12:57:36;;;;;;;230.97;72.57;;;;;;;;;;4991723;28;20180;-45
2024/02/23 13:00:02;;;;;;;231.37;73.00;;;;;;;;;;4991084;28;20462;-46
2024/02/23 13:02:28;;;;;;;234.43;74.35;;;;;;;;;;4991063;28;20938;-45
2024/02/23 13:04:54;;;;;;;231.47;71.77;;;;;;;;;;4982544;28;20192;-45
2024/02/23 13:07:20;;;;;;;228.20;71.37;;;;;;;;;;4991085;28;20958;-45
2024/02/23 13:09:46;;;;;;;230.93;72.20;;;;;;;;;;4991153;28;20838;-45
2024/02/23 13:12:12;;;;;;;232.57;73.23;;;;;;;;;;4991028;28;20404;-45
2024/02/23 13:14:38;;;;;;;233.18;72.65;;;;;;;;;;4991291;28;20412;-45
2024/02/23 13:17:04;;;;;;;232.60;71.37;;;;;;;;;;4993408;28;20169;-45
2024/02/23 13:19:30;;;;;;;234.38;73.43;;;;;;;;;;4995064;28;20408;-45
2024/02/23 13:21:56;;;;;;;232.77;72.55;;;;;;;;;;4994851;28;20188;-45
2024/02/23 13:24:22;;;;;;;230.93;71.63;;;;;;;;;;4994877;28;20224;-45
2024/02/23 13:26:48;;;;;;;229.37;69.70;;;;;;;;;;4994323;28;20208;-45
2024/02/23 13:29:14;;;;;;;229.87;70.47;;;;;;;;;;4994795;28;20469;-45
2024/02/23 13:31:40;;;;;;;228.40;68.70;;;;;;;;;;4994667;28;20939;-44
2024/02/23 13:34:06;;;;;;;230.13;69.55;;;;;;;;;;4994883;28;20403;-45
2024/02/23 13:36:32;;;;;;;230.95;72.68;;;;;;;;;;4994416;28;20706;-45
2024/02/23 13:38:58;;;;;;;232.30;72.07;;;;;;;;;;4994936;28;20255;-46
2024/02/23 13:41:24;;;;;;;230.77;72.07;;;;;;;;;;4994364;28;20474;-45
2024/02/23 13:43:50;;;;;;;232.70;72.77;;;;;;;;;;4994938;28;20511;-45
2024/02/23 13:46:16;;;;;;;227.80;70.47;;;;;;;;;;4994255;28;20455;-45
2024/02/23 13:48:42;;;;;;;231.40;72.80;;;;;;;;;;4994360;28;20499;-45
2024/02/23 13:51:08;;;;;;;231.60;71.95;;;;;;;;;;4994382;28;20451;-46
2024/02/23 13:53:37;;;;;;;232.70;73.93;;;;;;;;;;4994214;28;20169;-45
2024/02/23 13:56:03;;;;;;;232.68;73.60;;;;;;;;;;4994020;28;20201;-45
2024/02/23 13:58:29;;;;;;;242.55;81.95;;;;;;;;;;4990693;28;20184;-45